createdAt,value
2022-12-20T00:00:12.388Z,5.59
2022-12-20T00:02:45.390Z,5.62
2022-12-20T00:05:18.375Z,5.60
2022-12-20T00:07:51.217Z,5.63
2022-12-20T00:10:25.426Z,5.63
2022-12-20T00:12:58.201Z,5.63
2022-12-20T00:15:31.514Z,5.64
2022-12-20T00:18:05.527Z,5.68
2022-12-20T00:20:38.497Z,5.70
2022-12-20T00:23:11.510Z,5.71
2022-12-20T00:25:45.786Z,5.73
2022-12-20T00:28:18.942Z,5.76
2022-12-20T00:30:54.926Z,5.79
2022-12-20T00:33:28.133Z,5.79
2022-12-20T00:36:01.383Z,5.82
2022-12-20T00:38:35.045Z,5.86
2022-12-20T00:41:11.273Z,5.89
2022-12-20T00:43:44.189Z,5.89
2022-12-20T00:46:18.972Z,5.92
2022-12-20T00:48:52.284Z,5.95
2022-12-20T00:51:27.229Z,5.98
2022-12-20T00:54:00.031Z,5.97
2022-12-20T00:56:34.303Z,5.99
2022-12-20T00:59:07.481Z,6.00
2022-12-20T01:01:40.701Z,5.99
2022-12-20T01:04:13.618Z,6.00
2022-12-20T01:06:46.464Z,5.99
2022-12-20T01:09:19.416Z,5.99
2022-12-20T01:11:53.920Z,5.99
2022-12-20T01:14:26.845Z,5.96
2022-12-20T01:17:00.910Z,5.95
2022-12-20T01:19:33.937Z,5.91
2022-12-20T01:22:06.785Z,5.88
2022-12-20T01:24:39.697Z,5.86
2022-12-20T01:27:13.984Z,5.83
2022-12-20T01:29:46.904Z,5.80
2022-12-20T01:32:19.721Z,5.76
2022-12-20T01:34:52.794Z,5.71
2022-12-20T01:37:25.762Z,5.65
2022-12-20T01:39:58.557Z,5.63
2022-12-20T01:42:33.022Z,5.58
2022-12-20T01:45:10.416Z,5.56
2022-12-20T01:47:43.251Z,5.51
2022-12-20T01:50:16.077Z,5.45
2022-12-20T01:52:49.535Z,5.42
2022-12-20T01:55:26.645Z,5.41
2022-12-20T01:58:03.150Z,5.37
2022-12-20T02:00:36.671Z,5.34
2022-12-20T02:03:13.752Z,5.30
2022-12-20T02:05:47.827Z,5.29
2022-12-20T02:08:21.738Z,5.28
2022-12-20T02:11:10.902Z,5.28
2022-12-20T02:13:50.428Z,5.29
2022-12-20T02:16:27.442Z,5.30
2022-12-20T02:19:06.695Z,5.31
2022-12-20T02:21:43.948Z,5.34
2022-12-20T02:24:58.715Z,5.37
2022-12-20T02:27:57.646Z,5.37
2022-12-20T02:30:36.276Z,5.36
2022-12-20T02:33:12.624Z,5.36
2022-12-20T02:35:45.456Z,5.31
2022-12-20T02:38:30.585Z,5.34
2022-12-20T02:41:08.223Z,5.28
2022-12-20T02:44:02.093Z,5.24
2022-12-20T02:46:38.172Z,5.21
2022-12-20T02:49:15.035Z,5.15
2022-12-20T02:51:51.748Z,5.13
2022-12-20T02:54:25.805Z,5.09
2022-12-20T02:57:03.668Z,5.07
2022-12-20T02:59:42.760Z,5.05
2022-12-20T03:02:17.384Z,5.06
2022-12-20T03:04:51.796Z,5.03
2022-12-20T03:07:24.682Z,5.02
2022-12-20T03:09:57.567Z,5.02
2022-12-20T03:12:30.442Z,5.01
2022-12-20T03:15:03.300Z,5.00
2022-12-20T03:17:37.636Z,5.02
2022-12-20T03:20:12.314Z,4.99
2022-12-20T03:22:45.204Z,4.99
2022-12-20T03:25:18.423Z,4.98
2022-12-20T03:27:51.514Z,4.97
2022-12-20T03:30:24.526Z,4.93
2022-12-20T03:32:59.667Z,4.93
2022-12-20T03:35:32.677Z,4.93
2022-12-20T03:38:05.612Z,4.91
2022-12-20T03:40:38.517Z,4.87
2022-12-20T03:43:11.353Z,4.84
2022-12-20T03:45:44.148Z,4.81
2022-12-20T03:48:18.467Z,4.79
2022-12-20T03:50:51.365Z,4.74
2022-12-20T03:53:24.190Z,4.72
2022-12-20T03:55:57.145Z,4.68
2022-12-20T03:58:30.034Z,4.65
2022-12-20T04:01:03.107Z,4.63
2022-12-20T04:03:37.727Z,4.61
2022-12-20T04:06:10.555Z,4.58
2022-12-20T04:08:43.582Z,4.53
2022-12-20T04:11:19.553Z,4.51
2022-12-20T04:13:54.552Z,4.48
2022-12-20T04:16:29.434Z,4.46
2022-12-20T04:19:04.108Z,4.45
2022-12-20T04:21:37.408Z,4.42
2022-12-20T04:24:10.586Z,4.41
2022-12-20T04:26:43.516Z,4.37
2022-12-20T04:29:16.588Z,4.36
2022-12-20T04:31:49.529Z,4.33
2022-12-20T04:34:23.806Z,4.33
2022-12-20T04:36:56.784Z,4.33
2022-12-20T04:39:29.947Z,4.35
2022-12-20T04:42:02.826Z,4.37
2022-12-20T04:44:35.647Z,4.42
2022-12-20T04:47:10.235Z,4.48
2022-12-20T04:49:44.504Z,4.53
2022-12-20T04:52:34.766Z,4.59
2022-12-20T04:55:08.029Z,4.65
2022-12-20T04:57:40.809Z,4.70
2022-12-20T05:00:15.395Z,4.75
2022-12-20T05:02:48.541Z,4.80
2022-12-20T05:05:22.956Z,4.85
2022-12-20T05:07:56.457Z,4.87
2022-12-20T05:10:29.455Z,4.88
2022-12-20T05:13:08.811Z,4.89
2022-12-20T05:15:43.340Z,4.89
2022-12-20T05:18:16.282Z,4.86
2022-12-20T05:21:10.785Z,4.85
2022-12-20T05:24:00.833Z,4.82
2022-12-20T05:26:37.088Z,4.80
2022-12-20T05:29:10.022Z,4.78
2022-12-20T05:31:42.855Z,4.75
2022-12-20T05:34:15.909Z,4.72
2022-12-20T05:36:50.404Z,4.72
2022-12-20T05:39:23.190Z,4.69
2022-12-20T05:41:56.145Z,4.67
2022-12-20T05:44:28.969Z,4.69
2022-12-20T05:47:01.995Z,4.67
2022-12-20T05:49:34.959Z,4.66
2022-12-20T05:52:09.245Z,4.66
2022-12-20T05:54:42.054Z,4.65
2022-12-20T05:57:16.268Z,4.66
2022-12-20T05:59:49.433Z,4.65
2022-12-20T06:02:22.646Z,4.66
2022-12-20T06:04:55.729Z,4.65
2022-12-20T06:07:30.080Z,4.69
2022-12-20T06:10:03.019Z,4.68
2022-12-20T06:12:36.105Z,4.69
2022-12-20T06:15:10.855Z,4.71
2022-12-20T06:17:43.776Z,4.70
2022-12-20T06:20:16.745Z,4.71
2022-12-20T06:22:51.027Z,4.71
2022-12-20T06:25:23.957Z,4.70
2022-12-20T06:27:57.633Z,4.68
2022-12-20T06:30:33.970Z,4.66
2022-12-20T06:33:07.439Z,4.66
2022-12-20T06:35:40.212Z,4.63
2022-12-20T06:38:14.519Z,4.60
2022-12-20T06:40:47.362Z,4.57
2022-12-20T06:43:20.227Z,4.53
2022-12-20T06:45:53.360Z,4.49
2022-12-20T06:48:26.270Z,4.45
2022-12-20T06:50:59.159Z,4.41
2022-12-20T06:53:33.864Z,4.37
2022-12-20T06:56:07.534Z,4.34
2022-12-20T06:58:40.524Z,4.31
2022-12-20T07:01:13.432Z,4.30
2022-12-20T07:03:46.640Z,4.30
2022-12-20T07:06:19.498Z,4.28
2022-12-20T07:08:53.742Z,4.30
2022-12-20T07:11:26.715Z,4.32
2022-12-20T07:14:00.115Z,4.34
2022-12-20T07:16:33.272Z,4.38
2022-12-20T07:19:06.277Z,4.44
2022-12-20T07:21:39.269Z,4.51
2022-12-20T07:24:13.500Z,4.59
2022-12-20T07:26:46.624Z,4.65
2022-12-20T07:29:19.683Z,4.73
2022-12-20T07:31:53.054Z,4.80
2022-12-20T07:34:26.081Z,4.88
2022-12-20T07:36:58.971Z,4.97
2022-12-20T07:39:33.489Z,5.04
2022-12-20T07:42:06.526Z,5.09
2022-12-20T07:44:39.491Z,5.14
2022-12-20T07:47:12.321Z,5.17
2022-12-20T07:49:45.306Z,5.21
2022-12-20T07:52:20.982Z,5.28
2022-12-20T07:54:58.469Z,5.33
2022-12-20T07:57:36.745Z,5.40
2022-12-20T08:00:11.772Z,5.44
2022-12-20T08:02:50.125Z,5.53
2022-12-20T08:05:24.402Z,5.57
2022-12-20T08:08:00.241Z,5.64
2022-12-20T08:10:34.775Z,5.73
2022-12-20T08:13:08.069Z,5.81
2022-12-20T08:15:41.122Z,5.87
2022-12-20T08:18:14.259Z,5.92
2022-12-20T08:20:47.146Z,6.00
2022-12-20T08:23:20.378Z,6.08
2022-12-20T08:25:54.592Z,6.15
2022-12-20T08:28:27.823Z,6.21
2022-12-20T08:31:04.083Z,6.29
2022-12-20T08:33:38.389Z,6.33
2022-12-20T08:36:13.956Z,6.39
2022-12-20T08:38:46.865Z,6.45
2022-12-20T08:41:21.117Z,6.51
2022-12-20T08:43:54.161Z,6.54
2022-12-20T08:46:27.040Z,6.59
2022-12-20T08:48:59.943Z,6.64
2022-12-20T08:51:33.183Z,6.68
2022-12-20T08:54:06.209Z,6.73
2022-12-20T08:56:40.442Z,6.79
2022-12-20T08:59:13.495Z,6.84
2022-12-20T09:01:46.884Z,6.89
2022-12-20T09:04:19.884Z,6.95
2022-12-20T09:06:52.811Z,7.02
2022-12-20T09:09:25.653Z,7.09
2022-12-20T09:11:59.914Z,7.17
2022-12-20T09:14:32.777Z,7.24
2022-12-20T09:17:06.403Z,7.31
2022-12-20T09:19:39.278Z,7.36
2022-12-20T09:22:12.247Z,7.45
2022-12-20T09:24:45.420Z,7.50
2022-12-20T09:27:20.091Z,7.59
2022-12-20T09:29:52.916Z,7.65
2022-12-20T09:32:25.740Z,7.73
2022-12-20T09:34:58.836Z,7.78
2022-12-20T09:37:32.332Z,7.83
2022-12-20T09:40:06.071Z,7.91
2022-12-20T09:42:40.361Z,7.96
2022-12-20T09:45:27.174Z,8.03
2022-12-20T09:48:00.020Z,8.07
2022-12-20T09:50:45.086Z,8.14
2022-12-20T09:53:28.993Z,8.18
2022-12-20T09:56:06.222Z,8.21
2022-12-20T09:58:56.855Z,8.27
2022-12-20T10:01:38.229Z,8.29
2022-12-20T10:04:21.311Z,8.37
2022-12-20T10:07:14.336Z,8.43
2022-12-20T10:10:06.872Z,8.51
2022-12-20T10:12:48.333Z,8.55
2022-12-20T10:15:28.723Z,8.62
2022-12-20T10:18:20.710Z,8.66
2022-12-20T10:20:58.443Z,8.70
2022-12-20T10:23:38.578Z,8.75
2022-12-20T10:26:14.205Z,8.77
2022-12-20T10:28:52.221Z,8.78
2022-12-20T10:31:28.696Z,8.81
2022-12-20T10:34:01.504Z,8.81
2022-12-20T10:36:35.994Z,8.83
2022-12-20T10:39:11.357Z,8.84
2022-12-20T10:41:52.245Z,8.86
2022-12-20T10:44:28.299Z,8.85
2022-12-20T10:47:02.882Z,8.88
2022-12-20T10:49:38.053Z,8.93
2022-12-20T10:52:14.492Z,8.98
2022-12-20T10:54:48.417Z,9.05
2022-12-20T10:57:24.086Z,9.15
2022-12-20T11:00:00.266Z,9.27
2022-12-20T11:02:41.542Z,9.38
2022-12-20T11:05:22.637Z,9.48
2022-12-20T11:10:50.271Z,9.67
2022-12-20T11:13:25.873Z,9.74
2022-12-20T11:16:01.593Z,9.80
2022-12-20T11:18:45.343Z,9.88
2022-12-20T11:21:28.730Z,9.98
2022-12-20T11:24:09.007Z,10.06
2022-12-20T11:26:59.273Z,10.14
2022-12-20T11:29:56.058Z,10.21
2022-12-20T11:32:48.306Z,10.26
2022-12-20T11:35:31.407Z,10.28
2022-12-20T11:38:14.383Z,10.32
2022-12-20T11:40:52.965Z,10.34
2022-12-20T11:44:00.999Z,10.37
2022-12-20T11:46:45.712Z,10.44
2022-12-20T11:49:38.708Z,10.50
2022-12-20T11:52:20.908Z,10.55
2022-12-20T11:55:03.393Z,10.64
2022-12-20T11:58:09.523Z,10.68
2022-12-20T12:00:37.757Z,10.72
2022-12-20T12:03:17.637Z,10.74
2022-12-20T12:05:55.995Z,10.77
2022-12-20T12:08:39.856Z,10.78
2022-12-20T12:12:04.577Z,10.80
2022-12-20T12:14:19.244Z,10.81
2022-12-20T12:16:55.338Z,10.82
2022-12-20T12:19:31.907Z,10.83
2022-12-20T12:22:12.239Z,10.85
2022-12-20T12:24:50.331Z,10.87
2022-12-20T12:27:25.858Z,10.85
2022-12-20T12:30:00.305Z,10.86
2022-12-20T12:32:39.250Z,10.83
2022-12-20T12:35:53.856Z,10.78
2022-12-20T12:39:06.282Z,10.68
2022-12-20T12:42:19.626Z,10.56
2022-12-20T12:44:56.482Z,10.42
2022-12-20T12:47:36.501Z,10.26
2022-12-20T12:50:18.916Z,10.12
2022-12-20T12:52:55.496Z,9.97
2022-12-20T12:55:43.519Z,9.84
2022-12-20T12:58:33.939Z,9.70
2022-12-20T13:01:10.739Z,9.58
2022-12-20T13:04:10.395Z,9.50
2022-12-20T13:07:05.861Z,9.39
2022-12-20T13:09:42.563Z,9.31
2022-12-20T13:12:48.850Z,9.25
2022-12-20T13:15:52.794Z,9.17
2022-12-20T13:18:27.511Z,9.11
2022-12-20T13:21:30.535Z,9.08
2022-12-20T13:24:42.543Z,9.06
2022-12-20T13:27:33.589Z,9.01
2022-12-20T13:30:30.629Z,9.00
2022-12-20T13:33:39.235Z,8.97
2022-12-20T13:36:33.902Z,8.97
2022-12-20T13:39:34.337Z,8.96
2022-12-20T13:42:23.857Z,8.94
2022-12-20T13:44:57.183Z,8.90
2022-12-20T13:47:36.024Z,8.92
2022-12-20T13:50:31.095Z,8.87
2022-12-20T13:53:05.705Z,8.84
2022-12-20T13:55:39.997Z,8.80
2022-12-20T13:58:17.153Z,8.79
2022-12-20T14:00:51.417Z,8.78
2022-12-20T14:03:27.750Z,8.78
2022-12-20T14:06:04.283Z,8.79
2022-12-20T14:08:40.206Z,8.81
2022-12-20T14:11:14.673Z,8.84
2022-12-20T14:13:53.994Z,8.88
2022-12-20T14:16:28.733Z,8.91
2022-12-20T14:19:03.986Z,8.97
2022-12-20T14:21:41.524Z,9.04
2022-12-20T14:24:18.473Z,9.10
2022-12-20T14:26:54.214Z,9.17
2022-12-20T14:29:32.697Z,9.24
2022-12-20T14:32:06.586Z,9.31
2022-12-20T14:34:44.436Z,9.37
2022-12-20T14:37:30.989Z,9.45
2022-12-20T14:40:17.665Z,9.49
2022-12-20T14:42:50.640Z,9.50
2022-12-20T14:45:26.867Z,9.53
2022-12-20T14:48:03.558Z,9.57
2022-12-20T14:50:37.953Z,9.55
2022-12-20T14:53:21.248Z,9.57
2022-12-20T14:55:54.110Z,9.55
2022-12-20T14:58:30.059Z,9.54
2022-12-20T15:01:05.439Z,9.56
2022-12-20T15:03:50.885Z,9.59
2022-12-20T15:06:35.593Z,9.59
2022-12-20T15:09:09.916Z,9.58
2022-12-20T15:11:46.707Z,9.55
2022-12-20T15:14:35.120Z,9.55
2022-12-20T15:17:13.336Z,9.52
2022-12-20T15:19:46.129Z,9.44
2022-12-20T15:22:21.590Z,9.41
2022-12-20T15:24:55.782Z,9.37
2022-12-20T15:27:28.602Z,9.31
2022-12-20T15:30:01.345Z,9.30
2022-12-20T15:32:34.273Z,9.25
2022-12-20T15:35:13.552Z,9.21
2022-12-20T15:37:46.428Z,9.17
2022-12-20T15:40:20.716Z,9.13
2022-12-20T15:42:53.555Z,9.05
2022-12-20T15:45:27.843Z,8.97
2022-12-20T15:48:00.707Z,8.89
2022-12-20T15:50:33.486Z,8.79
2022-12-20T15:53:06.300Z,8.72
2022-12-20T15:55:41.104Z,8.61
2022-12-20T15:58:13.963Z,8.54
2022-12-20T16:00:47.585Z,8.49
2022-12-20T16:03:22.614Z,8.45
2022-12-20T16:05:56.367Z,8.40
2022-12-20T16:08:29.192Z,8.37
2022-12-20T16:11:03.551Z,8.35
2022-12-20T16:13:36.434Z,8.30
2022-12-20T16:16:16.805Z,8.30
2022-12-20T16:18:49.674Z,8.26
2022-12-20T16:21:25.039Z,8.30
2022-12-20T16:23:57.818Z,8.29
2022-12-20T16:26:32.095Z,8.32
2022-12-20T16:29:05.172Z,8.33
2022-12-20T16:31:39.898Z,8.37
2022-12-20T16:34:14.922Z,8.42
2022-12-20T16:36:47.873Z,8.43
2022-12-20T16:39:21.155Z,8.43
2022-12-20T16:41:55.933Z,8.47
2022-12-20T16:44:28.855Z,8.47
2022-12-20T16:47:01.696Z,8.50
2022-12-20T16:49:34.602Z,8.50
2022-12-20T16:52:15.285Z,8.52
2022-12-20T16:54:48.244Z,8.53
2022-12-20T16:57:22.520Z,8.57
2022-12-20T16:59:55.276Z,8.58
2022-12-20T17:02:30.592Z,8.59
2022-12-20T17:05:03.606Z,8.57
2022-12-20T17:07:41.338Z,8.58
2022-12-20T17:10:14.621Z,8.58
2022-12-20T17:12:49.140Z,8.57
2022-12-20T17:15:25.742Z,8.58
2022-12-20T17:17:59.155Z,8.58
2022-12-20T17:20:36.663Z,8.59
2022-12-20T17:26:06.641Z,8.63
2022-12-20T17:28:40.990Z,8.65
2022-12-20T17:31:22.096Z,8.67
2022-12-20T17:33:55.359Z,8.64
2022-12-20T17:36:33.072Z,8.65
2022-12-20T17:39:12.099Z,8.66
2022-12-20T17:41:46.145Z,8.67
2022-12-20T17:44:22.285Z,8.66
2022-12-20T17:46:55.853Z,8.66
2022-12-20T17:49:28.754Z,8.64
2022-12-20T17:52:01.589Z,8.66
2022-12-20T17:54:40.117Z,8.67
2022-12-20T17:57:15.359Z,8.68
2022-12-20T17:59:49.854Z,8.70
2022-12-20T18:02:25.394Z,8.71
2022-12-20T18:04:58.523Z,8.72
2022-12-20T18:07:31.297Z,8.71
2022-12-20T18:10:04.289Z,8.70
2022-12-20T18:12:37.744Z,8.74
2022-12-20T18:15:13.386Z,8.75
2022-12-20T18:17:46.205Z,8.75
2022-12-20T18:20:19.105Z,8.76
2022-12-20T18:22:52.006Z,8.79
2022-12-20T18:25:24.770Z,8.80
2022-12-20T18:27:57.589Z,8.81
2022-12-20T18:30:31.818Z,8.81
2022-12-20T18:33:04.741Z,8.81
2022-12-20T18:35:37.546Z,8.82
2022-12-20T18:38:10.446Z,8.81
2022-12-20T18:40:45.349Z,8.81
2022-12-20T18:43:18.147Z,8.80
2022-12-20T18:45:52.416Z,8.80
2022-12-20T18:48:25.807Z,8.77
2022-12-20T18:51:04.183Z,8.79
2022-12-20T18:53:39.387Z,8.77
2022-12-20T18:56:15.163Z,8.76
2022-12-20T18:58:49.304Z,8.75
2022-12-20T19:01:27.026Z,8.76
2022-12-20T19:04:02.671Z,8.72
2022-12-20T19:06:36.411Z,8.73
2022-12-20T19:09:11.685Z,8.72
2022-12-20T19:11:44.610Z,8.70
2022-12-20T19:14:17.437Z,8.68
2022-12-20T19:16:52.151Z,8.68
2022-12-20T19:19:25.016Z,8.66
2022-12-20T19:21:57.776Z,8.67
2022-12-20T19:24:30.542Z,8.66
2022-12-20T19:27:04.577Z,8.65
2022-12-20T19:29:37.410Z,8.63
2022-12-20T19:32:11.701Z,8.63
2022-12-20T19:34:44.452Z,8.62
2022-12-20T19:37:18.272Z,8.60
2022-12-20T19:39:51.103Z,8.58
2022-12-20T19:42:25.135Z,8.59
2022-12-20T19:44:58.325Z,8.55
2022-12-20T19:47:33.694Z,8.53
2022-12-20T19:50:09.248Z,8.51
2022-12-20T19:52:42.024Z,8.46
2022-12-20T19:55:15.018Z,8.44
2022-12-20T19:57:47.851Z,8.41
2022-12-20T20:00:21.408Z,8.39
2022-12-20T20:02:55.872Z,8.33
2022-12-20T20:05:28.748Z,8.31
2022-12-20T20:08:01.612Z,8.28
2022-12-20T20:10:34.453Z,8.26
2022-12-20T20:13:07.351Z,8.23
2022-12-20T20:15:40.352Z,8.23
2022-12-20T20:18:14.747Z,8.23
2022-12-20T20:20:47.610Z,8.22
2022-12-20T20:23:20.913Z,8.19
2022-12-20T20:25:56.841Z,8.20
2022-12-20T20:28:33.253Z,8.19
2022-12-20T20:31:10.214Z,8.19
2022-12-20T20:33:44.927Z,8.20
2022-12-20T20:36:19.898Z,8.18
2022-12-20T20:38:53.281Z,8.20
2022-12-20T20:41:26.377Z,8.19
2022-12-20T20:43:59.490Z,8.21
2022-12-20T20:46:32.432Z,8.21
2022-12-20T20:49:06.946Z,8.22
2022-12-20T20:51:40.083Z,8.22
2022-12-20T20:54:13.231Z,8.24
2022-12-20T20:56:46.089Z,8.27
2022-12-20T20:59:19.066Z,8.29
2022-12-20T21:01:52.116Z,8.30
2022-12-20T21:04:26.427Z,8.30
2022-12-20T21:06:59.390Z,8.31
2022-12-20T21:09:32.651Z,8.32
2022-12-20T21:12:05.840Z,8.33
2022-12-20T21:15:19.975Z,8.35
2022-12-20T21:17:32.365Z,8.36
2022-12-20T21:20:08.195Z,8.38
2022-12-20T21:22:41.131Z,8.37
2022-12-20T21:25:13.918Z,8.35
2022-12-20T21:27:46.991Z,8.36
2022-12-20T21:30:19.900Z,8.34
2022-12-20T21:32:52.791Z,8.31
2022-12-20T21:35:27.148Z,8.31
2022-12-20T21:38:01.839Z,8.26
2022-12-20T21:40:35.154Z,8.25
2022-12-20T21:43:08.134Z,8.26
2022-12-20T21:45:40.873Z,8.23
2022-12-20T21:48:13.735Z,8.23
2022-12-20T21:50:48.223Z,8.24
2022-12-20T21:53:21.053Z,8.25
2022-12-20T21:55:55.702Z,8.25
2022-12-20T21:58:30.640Z,8.24
2022-12-20T22:01:05.372Z,8.23
2022-12-20T22:03:38.763Z,8.23
2022-12-20T22:06:13.665Z,8.21
2022-12-20T22:08:46.536Z,8.20
2022-12-20T22:11:19.892Z,8.17
2022-12-20T22:13:55.675Z,8.16
2022-12-20T22:16:32.035Z,8.14
2022-12-20T22:19:05.232Z,8.15
2022-12-20T22:21:39.511Z,8.16
2022-12-20T22:24:12.290Z,8.14
2022-12-20T22:26:45.157Z,8.14
2022-12-20T22:29:18.014Z,8.15
2022-12-20T22:31:52.585Z,8.14
2022-12-20T22:34:25.778Z,8.12
2022-12-20T22:36:59.974Z,8.14
2022-12-20T22:39:32.903Z,8.13
2022-12-20T22:42:05.970Z,8.13
2022-12-20T22:44:38.864Z,8.12
2022-12-20T22:47:12.235Z,8.11
2022-12-20T22:49:45.012Z,8.13
2022-12-20T22:52:21.010Z,8.13
2022-12-20T22:54:53.818Z,8.13
2022-12-20T22:57:27.692Z,8.14
2022-12-20T23:00:00.466Z,8.16
2022-12-20T23:02:33.602Z,8.17
2022-12-20T23:05:07.095Z,8.18
2022-12-20T23:07:41.359Z,8.21
2022-12-20T23:10:34.443Z,8.21
2022-12-20T23:13:24.485Z,8.23
2022-12-20T23:15:57.359Z,8.25
2022-12-20T23:18:30.230Z,8.29
2022-12-20T23:21:20.437Z,8.32
2022-12-20T23:23:56.366Z,8.35
2022-12-20T23:26:29.346Z,8.39
2022-12-20T23:29:04.053Z,8.41
2022-12-20T23:31:37.202Z,8.47
2022-12-20T23:34:10.095Z,8.50
2022-12-20T23:36:42.911Z,8.53
2022-12-20T23:39:17.363Z,8.60
2022-12-20T23:41:50.220Z,8.64
2022-12-20T23:44:23.249Z,8.72
2022-12-20T23:46:58.042Z,8.82
2022-12-20T23:49:30.880Z,8.93
2022-12-20T23:52:03.711Z,9.03
2022-12-20T23:54:37.895Z,9.13
2022-12-20T23:57:12.255Z,9.26
2022-12-20T23:59:45.120Z,9.40
